sensor_id;sensor_type;location;lat;lon;timestamp;P1;durP1;ratioP1;P2;durP2;ratioP2
13171;SDS011;6651;53.200;10.432;2023-06-22T00:00:46;6.03;;;4.40;;
13171;SDS011;6651;53.200;10.432;2023-06-22T00:03:12;5.05;;;4.32;;
13171;SDS011;6651;53.200;10.432;2023-06-22T00:05:38;4.60;;;4.07;;
13171;SDS011;6651;53.200;10.432;2023-06-22T00:08:04;5.10;;;4.60;;
13171;SDS011;6651;53.200;10.432;2023-06-22T00:10:32;5.18;;;4.65;;
13171;SDS011;6651;53.200;10.432;2023-06-22T00:12:58;6.47;;;5.13;;
13171;SDS011;6651;53.200;10.432;2023-06-22T00:15:23;5.20;;;4.70;;
13171;SDS011;6651;53.200;10.432;2023-06-22T00:17:49;5.15;;;4.50;;
13171;SDS011;6651;53.200;10.432;2023-06-22T00:20:15;4.97;;;4.53;;
13171;SDS011;6651;53.200;10.432;2023-06-22T00:22:43;4.80;;;4.30;;
13171;SDS011;6651;53.200;10.432;2023-06-22T00:25:09;5.05;;;4.55;;
13171;SDS011;6651;53.200;10.432;2023-06-22T00:27:35;5.05;;;4.40;;
13171;SDS011;6651;53.200;10.432;2023-06-22T00:30:02;4.90;;;4.32;;
13171;SDS011;6651;53.200;10.432;2023-06-22T00:32:28;4.72;;;4.28;;
13171;SDS011;6651;53.200;10.432;2023-06-22T00:34:54;4.72;;;4.30;;
13171;SDS011;6651;53.200;10.432;2023-06-22T00:37:20;7.60;;;4.63;;
13171;SDS011;6651;53.200;10.432;2023-06-22T00:39:50;5.60;;;4.75;;
13171;SDS011;6651;53.200;10.432;2023-06-22T00:42:16;6.75;;;4.70;;
13171;SDS011;6651;53.200;10.432;2023-06-22T00:44:42;6.32;;;4.60;;
13171;SDS011;6651;53.200;10.432;2023-06-22T00:47:09;4.88;;;4.38;;
13171;SDS011;6651;53.200;10.432;2023-06-22T00:49:38;4.93;;;4.43;;
13171;SDS011;6651;53.200;10.432;2023-06-22T00:52:04;5.78;;;4.70;;
13171;SDS011;6651;53.200;10.432;2023-06-22T00:54:38;5.13;;;4.60;;
13171;SDS011;6651;53.200;10.432;2023-06-22T00:57:10;5.32;;;4.50;;
13171;SDS011;6651;53.200;10.432;2023-06-22T00:59:37;5.47;;;4.63;;
13171;SDS011;6651;53.200;10.432;2023-06-22T01:02:04;5.03;;;4.53;;
13171;SDS011;6651;53.200;10.432;2023-06-22T01:04:36;5.53;;;4.43;;
13171;SDS011;6651;53.200;10.432;2023-06-22T01:12:34;4.55;;;4.10;;
13171;SDS011;6651;53.200;10.432;2023-06-22T01:15:09;5.32;;;4.47;;
13171;SDS011;6651;53.200;10.432;2023-06-22T01:17:39;5.03;;;4.53;;
13171;SDS011;6651;53.200;10.432;2023-06-22T01:20:08;6.30;;;4.53;;
13171;SDS011;6651;53.200;10.432;2023-06-22T01:23:26;5.63;;;4.57;;
13171;SDS011;6651;53.200;10.432;2023-06-22T01:26:17;4.65;;;4.15;;
13171;SDS011;6651;53.200;10.432;2023-06-22T01:28:39;4.88;;;4.25;;
13171;SDS011;6651;53.200;10.432;2023-06-22T01:31:08;5.68;;;4.35;;
13171;SDS011;6651;53.200;10.432;2023-06-22T01:33:37;5.20;;;4.50;;
13171;SDS011;6651;53.200;10.432;2023-06-22T01:36:06;7.30;;;4.30;;
13171;SDS011;6651;53.200;10.432;2023-06-22T01:38:33;5.13;;;4.25;;
13171;SDS011;6651;53.200;10.432;2023-06-22T01:41:00;6.15;;;4.25;;
13171;SDS011;6651;53.200;10.432;2023-06-22T01:43:27;4.80;;;4.25;;
13171;SDS011;6651;53.200;10.432;2023-06-22T01:45:55;4.55;;;4.05;;
13171;SDS011;6651;53.200;10.432;2023-06-22T01:48:22;4.32;;;3.92;;
13171;SDS011;6651;53.200;10.432;2023-06-22T01:50:48;4.80;;;4.30;;
13171;SDS011;6651;53.200;10.432;2023-06-22T01:53:14;6.10;;;4.60;;
13171;SDS011;6651;53.200;10.432;2023-06-22T01:55:40;4.75;;;4.28;;
13171;SDS011;6651;53.200;10.432;2023-06-22T01:58:06;5.90;;;4.57;;
13171;SDS011;6651;53.200;10.432;2023-06-22T02:00:32;7.43;;;5.03;;
13171;SDS011;6651;53.200;10.432;2023-06-22T02:03:02;7.93;;;5.38;;
13171;SDS011;6651;53.200;10.432;2023-06-22T02:05:36;6.50;;;5.50;;
13171;SDS011;6651;53.200;10.432;2023-06-22T02:08:08;7.25;;;5.53;;
13171;SDS011;6651;53.200;10.432;2023-06-22T02:10:37;6.10;;;5.22;;
13171;SDS011;6651;53.200;10.432;2023-06-22T02:13:06;5.35;;;4.70;;
13171;SDS011;6651;53.200;10.432;2023-06-22T02:15:34;5.13;;;4.63;;
13171;SDS011;6651;53.200;10.432;2023-06-22T02:18:00;5.70;;;4.45;;
13171;SDS011;6651;53.200;10.432;2023-06-22T02:20:26;5.10;;;4.32;;
13171;SDS011;6651;53.200;10.432;2023-06-22T02:22:52;6.30;;;4.80;;
13171;SDS011;6651;53.200;10.432;2023-06-22T02:25:17;7.40;;;4.88;;
13171;SDS011;6651;53.200;10.432;2023-06-22T02:27:44;6.10;;;4.40;;
13171;SDS011;6651;53.200;10.432;2023-06-22T02:30:10;5.50;;;4.00;;
13171;SDS011;6651;53.200;10.432;2023-06-22T02:32:37;4.65;;;4.25;;
13171;SDS011;6651;53.200;10.432;2023-06-22T02:35:07;4.30;;;3.88;;
13171;SDS011;6651;53.200;10.432;2023-06-22T02:37:34;4.40;;;4.00;;
13171;SDS011;6651;53.200;10.432;2023-06-22T02:40:03;5.03;;;4.07;;
13171;SDS011;6651;53.200;10.432;2023-06-22T02:42:32;4.90;;;4.40;;
13171;SDS011;6651;53.200;10.432;2023-06-22T02:44:58;5.80;;;4.22;;
13171;SDS011;6651;53.200;10.432;2023-06-22T02:47:23;6.18;;;4.57;;
13171;SDS011;6651;53.200;10.432;2023-06-22T02:49:49;5.90;;;4.32;;
13171;SDS011;6651;53.200;10.432;2023-06-22T02:52:15;4.90;;;4.40;;
13171;SDS011;6651;53.200;10.432;2023-06-22T02:54:40;5.57;;;5.00;;
13171;SDS011;6651;53.200;10.432;2023-06-22T02:57:06;5.07;;;4.57;;
13171;SDS011;6651;53.200;10.432;2023-06-22T02:59:32;5.90;;;4.53;;
13171;SDS011;6651;53.200;10.432;2023-06-22T03:01:57;5.55;;;4.72;;
13171;SDS011;6651;53.200;10.432;2023-06-22T03:04:23;5.80;;;5.13;;
13171;SDS011;6651;53.200;10.432;2023-06-22T03:06:48;6.18;;;4.78;;
13171;SDS011;6651;53.200;10.432;2023-06-22T03:09:16;5.30;;;4.78;;
13171;SDS011;6651;53.200;10.432;2023-06-22T03:11:42;6.88;;;5.00;;
13171;SDS011;6651;53.200;10.432;2023-06-22T03:14:07;5.20;;;4.47;;
13171;SDS011;6651;53.200;10.432;2023-06-22T03:16:33;5.03;;;4.55;;
13171;SDS011;6651;53.200;10.432;2023-06-22T03:18:59;5.68;;;5.10;;
13171;SDS011;6651;53.200;10.432;2023-06-22T03:21:27;4.55;;;4.15;;
13171;SDS011;6651;53.200;10.432;2023-06-22T03:23:53;4.45;;;4.03;;
13171;SDS011;6651;53.200;10.432;2023-06-22T03:26:19;4.75;;;4.22;;
13171;SDS011;6651;53.200;10.432;2023-06-22T03:28:45;5.05;;;4.55;;
13171;SDS011;6651;53.200;10.432;2023-06-22T03:31:11;4.43;;;4.03;;
13171;SDS011;6651;53.200;10.432;2023-06-22T03:33:37;4.93;;;4.40;;
13171;SDS011;6651;53.200;10.432;2023-06-22T03:36:02;5.30;;;4.75;;
13171;SDS011;6651;53.200;10.432;2023-06-22T03:38:28;4.93;;;4.45;;
13171;SDS011;6651;53.200;10.432;2023-06-22T03:40:54;5.05;;;4.53;;
13171;SDS011;6651;53.200;10.432;2023-06-22T03:43:20;5.10;;;4.30;;
13171;SDS011;6651;53.200;10.432;2023-06-22T03:45:45;5.93;;;4.78;;
13171;SDS011;6651;53.200;10.432;2023-06-22T03:48:11;6.80;;;4.75;;
13171;SDS011;6651;53.200;10.432;2023-06-22T03:50:37;5.38;;;4.88;;
13171;SDS011;6651;53.200;10.432;2023-06-22T03:53:03;5.10;;;4.60;;
13171;SDS011;6651;53.200;10.432;2023-06-22T03:55:29;5.38;;;4.88;;
13171;SDS011;6651;53.200;10.432;2023-06-22T03:57:55;5.72;;;5.18;;
13171;SDS011;6651;53.200;10.432;2023-06-22T04:00:22;5.82;;;5.10;;
13171;SDS011;6651;53.200;10.432;2023-06-22T04:02:48;6.15;;;5.22;;
13171;SDS011;6651;53.200;10.432;2023-06-22T04:05:14;6.28;;;5.32;;
13171;SDS011;6651;53.200;10.432;2023-06-22T04:07:42;6.05;;;5.45;;
13171;SDS011;6651;53.200;10.432;2023-06-22T04:10:08;5.72;;;4.95;;
13171;SDS011;6651;53.200;10.432;2023-06-22T04:12:34;7.35;;;5.32;;
13171;SDS011;6651;53.200;10.432;2023-06-22T04:14:59;6.07;;;5.28;;
13171;SDS011;6651;53.200;10.432;2023-06-22T04:17:25;6.50;;;5.50;;
13171;SDS011;6651;53.200;10.432;2023-06-22T04:19:51;6.22;;;5.47;;
13171;SDS011;6651;53.200;10.432;2023-06-22T04:22:17;6.70;;;5.68;;
13171;SDS011;6651;53.200;10.432;2023-06-22T04:24:43;6.07;;;5.47;;
13171;SDS011;6651;53.200;10.432;2023-06-22T04:27:09;6.10;;;5.50;;
13171;SDS011;6651;53.200;10.432;2023-06-22T04:29:35;5.50;;;4.90;;
13171;SDS011;6651;53.200;10.432;2023-06-22T04:32:01;6.07;;;5.47;;
13171;SDS011;6651;53.200;10.432;2023-06-22T04:34:30;6.43;;;5.60;;
13171;SDS011;6651;53.200;10.432;2023-06-22T04:36:56;5.82;;;5.22;;
13171;SDS011;6651;53.200;10.432;2023-06-22T04:39:22;6.53;;;5.07;;
13171;SDS011;6651;53.200;10.432;2023-06-22T04:41:49;5.50;;;4.63;;
13171;SDS011;6651;53.200;10.432;2023-06-22T04:44:16;5.47;;;4.97;;
13171;SDS011;6651;53.200;10.432;2023-06-22T04:46:56;5.75;;;5.15;;
13171;SDS011;6651;53.200;10.432;2023-06-22T04:49:29;7.38;;;5.50;;
13171;SDS011;6651;53.200;10.432;2023-06-22T04:51:58;6.72;;;6.03;;
13171;SDS011;6651;53.200;10.432;2023-06-22T04:54:24;5.72;;;5.22;;
13171;SDS011;6651;53.200;10.432;2023-06-22T04:56:50;5.75;;;5.25;;
13171;SDS011;6651;53.200;10.432;2023-06-22T04:59:22;6.45;;;5.85;;
13171;SDS011;6651;53.200;10.432;2023-06-22T05:01:52;5.68;;;5.18;;
13171;SDS011;6651;53.200;10.432;2023-06-22T05:04:22;5.88;;;5.30;;
13171;SDS011;6651;53.200;10.432;2023-06-22T05:06:48;6.93;;;6.28;;
13171;SDS011;6651;53.200;10.432;2023-06-22T05:09:15;6.40;;;5.80;;
13171;SDS011;6651;53.200;10.432;2023-06-22T05:11:40;6.88;;;5.53;;
13171;SDS011;6651;53.200;10.432;2023-06-22T05:14:06;8.00;;;7.20;;
13171;SDS011;6651;53.200;10.432;2023-06-22T05:16:32;8.82;;;6.95;;
13171;SDS011;6651;53.200;10.432;2023-06-22T05:18:58;8.27;;;7.50;;
13171;SDS011;6651;53.200;10.432;2023-06-22T05:21:25;8.60;;;7.50;;
13171;SDS011;6651;53.200;10.432;2023-06-22T05:23:52;11.60;;;8.55;;
13171;SDS011;6651;53.200;10.432;2023-06-22T05:26:19;7.85;;;7.05;;
13171;SDS011;6651;53.200;10.432;2023-06-22T05:28:46;8.60;;;7.72;;
13171;SDS011;6651;53.200;10.432;2023-06-22T05:31:15;8.32;;;7.40;;
13171;SDS011;6651;53.200;10.432;2023-06-22T05:33:42;7.93;;;6.50;;
13171;SDS011;6651;53.200;10.432;2023-06-22T05:36:08;9.77;;;7.07;;
13171;SDS011;6651;53.200;10.432;2023-06-22T05:38:35;9.75;;;7.07;;
13171;SDS011;6651;53.200;10.432;2023-06-22T05:41:01;8.38;;;7.43;;
13171;SDS011;6651;53.200;10.432;2023-06-22T05:43:26;7.75;;;7.03;;
13171;SDS011;6651;53.200;10.432;2023-06-22T05:45:52;9.18;;;7.93;;
13171;SDS011;6651;53.200;10.432;2023-06-22T05:48:18;8.63;;;7.28;;
13171;SDS011;6651;53.200;10.432;2023-06-22T05:50:43;7.93;;;7.15;;
13171;SDS011;6651;53.200;10.432;2023-06-22T05:53:09;8.00;;;6.43;;
13171;SDS011;6651;53.200;10.432;2023-06-22T05:55:35;8.55;;;7.07;;
13171;SDS011;6651;53.200;10.432;2023-06-22T05:58:00;8.93;;;6.65;;
13171;SDS011;6651;53.200;10.432;2023-06-22T06:00:28;9.38;;;7.18;;
13171;SDS011;6651;53.200;10.432;2023-06-22T06:02:54;8.70;;;6.82;;
13171;SDS011;6651;53.200;10.432;2023-06-22T06:05:20;7.78;;;6.60;;
13171;SDS011;6651;53.200;10.432;2023-06-22T06:07:46;8.43;;;6.40;;
13171;SDS011;6651;53.200;10.432;2023-06-22T06:10:11;7.10;;;6.20;;
13171;SDS011;6651;53.200;10.432;2023-06-22T06:12:37;8.57;;;6.57;;
13171;SDS011;6651;53.200;10.432;2023-06-22T06:15:03;7.38;;;6.13;;
13171;SDS011;6651;53.200;10.432;2023-06-22T06:17:30;9.00;;;6.07;;
13171;SDS011;6651;53.200;10.432;2023-06-22T06:19:55;8.27;;;6.80;;
13171;SDS011;6651;53.200;10.432;2023-06-22T06:22:21;8.43;;;6.45;;
13171;SDS011;6651;53.200;10.432;2023-06-22T06:24:48;6.53;;;5.07;;
13171;SDS011;6651;53.200;10.432;2023-06-22T06:27:14;9.70;;;5.88;;
13171;SDS011;6651;53.200;10.432;2023-06-22T06:29:42;7.68;;;5.15;;
13171;SDS011;6651;53.200;10.432;2023-06-22T06:32:10;8.32;;;5.65;;
13171;SDS011;6651;53.200;10.432;2023-06-22T06:34:37;6.95;;;4.75;;
13171;SDS011;6651;53.200;10.432;2023-06-22T06:37:03;7.03;;;4.80;;
13171;SDS011;6651;53.200;10.432;2023-06-22T06:39:28;7.72;;;4.13;;
13171;SDS011;6651;53.200;10.432;2023-06-22T06:41:54;6.30;;;4.05;;
13171;SDS011;6651;53.200;10.432;2023-06-22T06:44:20;6.22;;;4.50;;
13171;SDS011;6651;53.200;10.432;2023-06-22T06:46:46;4.55;;;3.80;;
13171;SDS011;6651;53.200;10.432;2023-06-22T06:49:12;5.38;;;3.88;;
13171;SDS011;6651;53.200;10.432;2023-06-22T06:51:38;4.22;;;3.80;;
13171;SDS011;6651;53.200;10.432;2023-06-22T06:54:04;4.55;;;3.58;;
13171;SDS011;6651;53.200;10.432;2023-06-22T06:56:29;4.68;;;3.65;;
13171;SDS011;6651;53.200;10.432;2023-06-22T06:58:55;4.05;;;3.40;;
13171;SDS011;6651;53.200;10.432;2023-06-22T07:01:21;6.43;;;3.80;;
13171;SDS011;6651;53.200;10.432;2023-06-22T07:03:46;4.10;;;3.25;;
13171;SDS011;6651;53.200;10.432;2023-06-22T07:06:13;3.50;;;3.10;;
13171;SDS011;6651;53.200;10.432;2023-06-22T07:08:38;4.28;;;3.50;;
13171;SDS011;6651;53.200;10.432;2023-06-22T07:11:05;4.72;;;3.45;;
13171;SDS011;6651;53.200;10.432;2023-06-22T07:13:30;4.35;;;3.22;;
13171;SDS011;6651;53.200;10.432;2023-06-22T07:15:56;4.53;;;3.30;;
13171;SDS011;6651;53.200;10.432;2023-06-22T07:18:23;4.63;;;3.20;;
13171;SDS011;6651;53.200;10.432;2023-06-22T07:20:49;6.50;;;3.75;;
13171;SDS011;6651;53.200;10.432;2023-06-22T07:23:15;4.97;;;3.33;;
13171;SDS011;6651;53.200;10.432;2023-06-22T07:25:42;5.18;;;3.70;;
13171;SDS011;6651;53.200;10.432;2023-06-22T07:28:07;5.63;;;3.83;;
13171;SDS011;6651;53.200;10.432;2023-06-22T07:30:34;4.68;;;3.80;;
13171;SDS011;6651;53.200;10.432;2023-06-22T07:33:00;5.32;;;3.90;;
13171;SDS011;6651;53.200;10.432;2023-06-22T07:35:29;4.32;;;3.58;;
13171;SDS011;6651;53.200;10.432;2023-06-22T07:37:55;4.28;;;3.80;;
13171;SDS011;6651;53.200;10.432;2023-06-22T07:40:21;6.40;;;3.90;;
13171;SDS011;6651;53.200;10.432;2023-06-22T07:42:47;6.97;;;4.07;;
13171;SDS011;6651;53.200;10.432;2023-06-22T07:45:17;7.20;;;3.65;;
13171;SDS011;6651;53.200;10.432;2023-06-22T07:47:43;5.47;;;3.53;;
13171;SDS011;6651;53.200;10.432;2023-06-22T07:50:09;4.38;;;3.30;;
13171;SDS011;6651;53.200;10.432;2023-06-22T07:52:35;6.22;;;3.42;;
13171;SDS011;6651;53.200;10.432;2023-06-22T07:55:00;6.95;;;3.88;;
13171;SDS011;6651;53.200;10.432;2023-06-22T07:57:27;5.18;;;3.40;;
13171;SDS011;6651;53.200;10.432;2023-06-22T08:00:03;5.10;;;3.60;;
13171;SDS011;6651;53.200;10.432;2023-06-22T08:02:37;5.05;;;3.53;;
13171;SDS011;6651;53.200;10.432;2023-06-22T08:05:03;4.88;;;3.10;;
13171;SDS011;6651;53.200;10.432;2023-06-22T08:07:29;5.30;;;3.38;;
13171;SDS011;6651;53.200;10.432;2023-06-22T08:09:57;8.07;;;3.50;;
13171;SDS011;6651;53.200;10.432;2023-06-22T08:12:23;4.25;;;3.17;;
13171;SDS011;6651;53.200;10.432;2023-06-22T08:14:49;5.60;;;3.70;;
13171;SDS011;6651;53.200;10.432;2023-06-22T08:17:15;6.63;;;3.55;;
13171;SDS011;6651;53.200;10.432;2023-06-22T08:19:41;8.25;;;3.63;;
13171;SDS011;6651;53.200;10.432;2023-06-22T08:22:06;5.32;;;3.60;;
13171;SDS011;6651;53.200;10.432;2023-06-22T08:24:32;8.07;;;3.35;;
13171;SDS011;6651;53.200;10.432;2023-06-22T08:26:58;5.55;;;3.10;;
13171;SDS011;6651;53.200;10.432;2023-06-22T08:29:24;3.72;;;3.38;;
13171;SDS011;6651;53.200;10.432;2023-06-22T08:31:49;6.00;;;3.40;;
13171;SDS011;6651;53.200;10.432;2023-06-22T08:34:15;3.55;;;2.95;;
13171;SDS011;6651;53.200;10.432;2023-06-22T08:36:40;5.43;;;3.20;;
13171;SDS011;6651;53.200;10.432;2023-06-22T08:39:09;5.30;;;3.28;;
13171;SDS011;6651;53.200;10.432;2023-06-22T08:41:35;5.28;;;3.80;;
13171;SDS011;6651;53.200;10.432;2023-06-22T08:44:01;6.72;;;3.50;;
13171;SDS011;6651;53.200;10.432;2023-06-22T08:46:27;6.05;;;3.80;;
13171;SDS011;6651;53.200;10.432;2023-06-22T08:48:58;6.57;;;3.60;;
13171;SDS011;6651;53.200;10.432;2023-06-22T08:51:24;7.45;;;3.53;;
13171;SDS011;6651;53.200;10.432;2023-06-22T08:53:50;5.20;;;3.63;;
13171;SDS011;6651;53.200;10.432;2023-06-22T08:56:16;4.13;;;3.22;;
13171;SDS011;6651;53.200;10.432;2023-06-22T08:58:41;3.83;;;3.15;;
13171;SDS011;6651;53.200;10.432;2023-06-22T09:01:07;6.25;;;3.50;;
13171;SDS011;6651;53.200;10.432;2023-06-22T09:03:32;5.55;;;3.60;;
13171;SDS011;6651;53.200;10.432;2023-06-22T09:06:01;3.90;;;3.10;;
13171;SDS011;6651;53.200;10.432;2023-06-22T09:08:26;3.83;;;3.20;;
13171;SDS011;6651;53.200;10.432;2023-06-22T09:10:52;6.28;;;3.25;;
13171;SDS011;6651;53.200;10.432;2023-06-22T09:13:18;3.47;;;3.17;;
13171;SDS011;6651;53.200;10.432;2023-06-22T09:15:43;5.65;;;3.28;;
13171;SDS011;6651;53.200;10.432;2023-06-22T09:18:13;4.40;;;3.33;;
13171;SDS011;6651;53.200;10.432;2023-06-22T09:20:39;3.90;;;3.50;;
13171;SDS011;6651;53.200;10.432;2023-06-22T09:23:04;4.25;;;3.13;;
13171;SDS011;6651;53.200;10.432;2023-06-22T09:25:30;3.78;;;3.10;;
13171;SDS011;6651;53.200;10.432;2023-06-22T09:27:56;3.75;;;2.85;;
13171;SDS011;6651;53.200;10.432;2023-06-22T09:30:22;5.40;;;3.40;;
13171;SDS011;6651;53.200;10.432;2023-06-22T09:32:48;4.32;;;3.10;;
13171;SDS011;6651;53.200;10.432;2023-06-22T09:35:13;4.25;;;3.10;;
13171;SDS011;6651;53.200;10.432;2023-06-22T09:37:39;4.00;;;3.25;;
13171;SDS011;6651;53.200;10.432;2023-06-22T09:40:06;4.43;;;3.50;;
13171;SDS011;6651;53.200;10.432;2023-06-22T09:42:37;6.80;;;3.50;;
13171;SDS011;6651;53.200;10.432;2023-06-22T09:45:04;5.18;;;3.20;;
13171;SDS011;6651;53.200;10.432;2023-06-22T09:47:30;4.07;;;3.35;;
13171;SDS011;6651;53.200;10.432;2023-06-22T09:49:56;5.22;;;3.42;;
13171;SDS011;6651;53.200;10.432;2023-06-22T09:52:24;3.72;;;3.42;;
13171;SDS011;6651;53.200;10.432;2023-06-22T09:54:49;5.50;;;3.50;;
13171;SDS011;6651;53.200;10.432;2023-06-22T09:57:15;5.90;;;3.40;;
13171;SDS011;6651;53.200;10.432;2023-06-22T09:59:40;5.43;;;3.55;;
13171;SDS011;6651;53.200;10.432;2023-06-22T10:02:06;4.10;;;3.60;;
13171;SDS011;6651;53.200;10.432;2023-06-22T10:04:33;3.63;;;3.25;;
13171;SDS011;6651;53.200;10.432;2023-06-22T10:06:59;5.15;;;3.70;;
13171;SDS011;6651;53.200;10.432;2023-06-22T10:09:25;4.55;;;3.45;;
13171;SDS011;6651;53.200;10.432;2023-06-22T10:11:51;4.22;;;3.20;;
13171;SDS011;6651;53.200;10.432;2023-06-22T10:14:16;4.78;;;3.20;;
13171;SDS011;6651;53.200;10.432;2023-06-22T10:16:42;5.03;;;3.70;;
13171;SDS011;6651;53.200;10.432;2023-06-22T10:19:08;3.90;;;3.50;;
13171;SDS011;6651;53.200;10.432;2023-06-22T10:21:33;4.22;;;3.60;;
13171;SDS011;6651;53.200;10.432;2023-06-22T10:23:59;4.03;;;3.50;;
13171;SDS011;6651;53.200;10.432;2023-06-22T10:26:31;5.43;;;3.67;;
13171;SDS011;6651;53.200;10.432;2023-06-22T10:29:00;11.25;;;3.67;;
13171;SDS011;6651;53.200;10.432;2023-06-22T10:31:27;8.02;;;3.80;;
13171;SDS011;6651;53.200;10.432;2023-06-22T10:33:53;4.10;;;3.70;;
13171;SDS011;6651;53.200;10.432;2023-06-22T10:36:19;5.95;;;3.75;;
13171;SDS011;6651;53.200;10.432;2023-06-22T10:38:45;4.30;;;3.50;;
13171;SDS011;6651;53.200;10.432;2023-06-22T10:41:12;4.35;;;3.50;;
13171;SDS011;6651;53.200;10.432;2023-06-22T10:43:38;4.38;;;3.97;;
13171;SDS011;6651;53.200;10.432;2023-06-22T10:46:04;4.85;;;4.18;;
13171;SDS011;6651;53.200;10.432;2023-06-22T10:48:29;6.72;;;4.40;;
13171;SDS011;6651;53.200;10.432;2023-06-22T10:50:55;6.00;;;4.45;;
13171;SDS011;6651;53.200;10.432;2023-06-22T10:53:21;4.85;;;4.00;;
13171;SDS011;6651;53.200;10.432;2023-06-22T10:55:47;4.93;;;4.40;;
13171;SDS011;6651;53.200;10.432;2023-06-22T10:58:12;4.72;;;4.20;;
13171;SDS011;6651;53.200;10.432;2023-06-22T11:00:38;4.55;;;4.05;;
13171;SDS011;6651;53.200;10.432;2023-06-22T11:03:04;5.05;;;4.22;;
13171;SDS011;6651;53.200;10.432;2023-06-22T11:05:29;4.85;;;4.03;;
13171;SDS011;6651;53.200;10.432;2023-06-22T11:07:55;4.32;;;3.92;;
13171;SDS011;6651;53.200;10.432;2023-06-22T11:10:21;5.20;;;3.78;;
13171;SDS011;6651;53.200;10.432;2023-06-22T11:12:46;5.57;;;4.30;;
13171;SDS011;6651;53.200;10.432;2023-06-22T11:15:12;4.55;;;3.92;;
13171;SDS011;6651;53.200;10.432;2023-06-22T11:17:38;6.60;;;4.07;;
13171;SDS011;6651;53.200;10.432;2023-06-22T11:20:04;6.10;;;4.78;;
13171;SDS011;6651;53.200;10.432;2023-06-22T11:22:35;5.28;;;4.70;;
13171;SDS011;6651;53.200;10.432;2023-06-22T11:25:04;5.35;;;4.65;;
13171;SDS011;6651;53.200;10.432;2023-06-22T11:27:31;5.68;;;4.55;;
13171;SDS011;6651;53.200;10.432;2023-06-22T11:29:57;5.63;;;4.93;;
13171;SDS011;6651;53.200;10.432;2023-06-22T11:32:22;5.78;;;4.97;;
13171;SDS011;6651;53.200;10.432;2023-06-22T11:34:48;5.47;;;4.10;;
13171;SDS011;6651;53.200;10.432;2023-06-22T11:37:14;6.50;;;4.40;;
13171;SDS011;6651;53.200;10.432;2023-06-22T11:39:40;4.70;;;4.30;;
13171;SDS011;6651;53.200;10.432;2023-06-22T11:42:07;4.60;;;4.10;;
13171;SDS011;6651;53.200;10.432;2023-06-22T11:44:33;5.65;;;4.80;;
13171;SDS011;6651;53.200;10.432;2023-06-22T11:46:59;5.70;;;5.03;;
13171;SDS011;6651;53.200;10.432;2023-06-22T11:49:26;6.50;;;4.55;;
13171;SDS011;6651;53.200;10.432;2023-06-22T11:51:52;5.70;;;4.40;;
13171;SDS011;6651;53.200;10.432;2023-06-22T11:54:18;5.15;;;4.63;;
13171;SDS011;6651;53.200;10.432;2023-06-22T11:56:43;6.57;;;5.05;;
13171;SDS011;6651;53.200;10.432;2023-06-22T11:59:09;4.82;;;4.40;;
13171;SDS011;6651;53.200;10.432;2023-06-22T12:01:35;6.13;;;4.80;;
13171;SDS011;6651;53.200;10.432;2023-06-22T12:04:00;7.45;;;4.80;;
13171;SDS011;6651;53.200;10.432;2023-06-22T12:06:26;6.13;;;4.97;;
13171;SDS011;6651;53.200;10.432;2023-06-22T12:08:52;5.55;;;4.95;;
13171;SDS011;6651;53.200;10.432;2023-06-22T12:11:18;7.50;;;5.10;;
13171;SDS011;6651;53.200;10.432;2023-06-22T12:13:43;6.15;;;5.47;;
13171;SDS011;6651;53.200;10.432;2023-06-22T12:16:09;5.57;;;5.07;;
13171;SDS011;6651;53.200;10.432;2023-06-22T12:18:35;5.82;;;5.10;;
13171;SDS011;6651;53.200;10.432;2023-06-22T12:21:03;5.55;;;5.00;;
13171;SDS011;6651;53.200;10.432;2023-06-22T12:23:29;6.95;;;5.05;;
13171;SDS011;6651;53.200;10.432;2023-06-22T12:25:54;5.75;;;5.18;;
13171;SDS011;6651;53.200;10.432;2023-06-22T12:28:20;5.35;;;4.78;;
13171;SDS011;6651;53.200;10.432;2023-06-22T12:30:46;5.85;;;4.85;;
13171;SDS011;6651;53.200;10.432;2023-06-22T12:33:11;5.82;;;5.22;;
13171;SDS011;6651;53.200;10.432;2023-06-22T12:35:37;5.40;;;4.78;;
13171;SDS011;6651;53.200;10.432;2023-06-22T12:38:02;5.20;;;4.70;;
13171;SDS011;6651;53.200;10.432;2023-06-22T12:40:28;5.47;;;4.97;;
13171;SDS011;6651;53.200;10.432;2023-06-22T12:42:54;6.05;;;4.80;;
13171;SDS011;6651;53.200;10.432;2023-06-22T12:45:19;5.55;;;4.85;;
13171;SDS011;6651;53.200;10.432;2023-06-22T12:47:46;5.20;;;4.70;;
13171;SDS011;6651;53.200;10.432;2023-06-22T12:50:12;5.88;;;4.55;;
13171;SDS011;6651;53.200;10.432;2023-06-22T12:52:39;5.57;;;4.70;;
13171;SDS011;6651;53.200;10.432;2023-06-22T12:55:06;5.20;;;4.60;;
13171;SDS011;6651;53.200;10.432;2023-06-22T12:57:32;5.57;;;4.72;;
13171;SDS011;6651;53.200;10.432;2023-06-22T12:59:57;5.15;;;4.60;;
13171;SDS011;6651;53.200;10.432;2023-06-22T13:02:25;5.20;;;4.70;;
13171;SDS011;6651;53.200;10.432;2023-06-22T13:04:51;5.88;;;4.80;;
13171;SDS011;6651;53.200;10.432;2023-06-22T13:07:16;6.05;;;5.15;;
13171;SDS011;6651;53.200;10.432;2023-06-22T13:09:42;5.95;;;5.10;;
13171;SDS011;6651;53.200;10.432;2023-06-22T13:12:10;6.55;;;4.70;;
13171;SDS011;6651;53.200;10.432;2023-06-22T13:14:36;7.07;;;5.40;;
13171;SDS011;6651;53.200;10.432;2023-06-22T13:17:01;5.45;;;4.95;;
13171;SDS011;6651;53.200;10.432;2023-06-22T13:19:27;5.55;;;5.03;;
13171;SDS011;6651;53.200;10.432;2023-06-22T13:21:57;5.97;;;5.38;;
13171;SDS011;6651;53.200;10.432;2023-06-22T13:24:23;6.40;;;5.40;;
13171;SDS011;6651;53.200;10.432;2023-06-22T13:26:48;5.70;;;5.10;;
13171;SDS011;6651;53.200;10.432;2023-06-22T13:29:14;5.50;;;5.00;;
13171;SDS011;6651;53.200;10.432;2023-06-22T13:31:40;5.80;;;5.20;;
13171;SDS011;6651;53.200;10.432;2023-06-22T13:34:05;5.72;;;5.10;;
13171;SDS011;6651;53.200;10.432;2023-06-22T13:36:31;5.88;;;5.15;;
13171;SDS011;6651;53.200;10.432;2023-06-22T13:38:57;5.70;;;4.55;;
13171;SDS011;6651;53.200;10.432;2023-06-22T13:41:24;6.00;;;4.93;;
13171;SDS011;6651;53.200;10.432;2023-06-22T13:43:50;5.55;;;4.97;;
13171;SDS011;6651;53.200;10.432;2023-06-22T13:46:16;6.03;;;5.45;;
13171;SDS011;6651;53.200;10.432;2023-06-22T13:48:42;6.03;;;5.53;;
13171;SDS011;6651;53.200;10.432;2023-06-22T13:51:07;5.90;;;5.30;;
13171;SDS011;6651;53.200;10.432;2023-06-22T14:01:19;6.07;;;5.38;;
13171;SDS011;6651;53.200;10.432;2023-06-22T14:03:48;6.05;;;5.28;;
13171;SDS011;6651;53.200;10.432;2023-06-22T14:06:16;5.47;;;4.97;;
13171;SDS011;6651;53.200;10.432;2023-06-22T14:08:48;5.97;;;5.40;;
13171;SDS011;6651;53.200;10.432;2023-06-22T14:11:14;7.82;;;5.30;;
13171;SDS011;6651;53.200;10.432;2023-06-22T14:13:43;6.28;;;5.03;;
13171;SDS011;6651;53.200;10.432;2023-06-22T14:16:09;5.78;;;4.82;;
13171;SDS011;6651;53.200;10.432;2023-06-22T14:18:34;5.50;;;5.00;;
13171;SDS011;6651;53.200;10.432;2023-06-22T14:21:00;5.60;;;5.00;;
13171;SDS011;6651;53.200;10.432;2023-06-22T14:23:28;5.50;;;4.95;;
13171;SDS011;6651;53.200;10.432;2023-06-22T14:25:59;7.35;;;5.55;;
13171;SDS011;6651;53.200;10.432;2023-06-22T14:29:06;6.85;;;5.18;;
13171;SDS011;6651;53.200;10.432;2023-06-22T14:35:22;5.43;;;4.93;;
13171;SDS011;6651;53.200;10.432;2023-06-22T14:38:06;5.50;;;5.00;;
13171;SDS011;6651;53.200;10.432;2023-06-22T14:40:45;6.60;;;4.85;;
13171;SDS011;6651;53.200;10.432;2023-06-22T14:43:29;5.78;;;4.80;;
13171;SDS011;6651;53.200;10.432;2023-06-22T14:46:36;6.15;;;5.30;;
13171;SDS011;6651;53.200;10.432;2023-06-22T14:49:11;5.60;;;5.10;;
13171;SDS011;6651;53.200;10.432;2023-06-22T14:52:20;5.85;;;5.30;;
13171;SDS011;6651;53.200;10.432;2023-06-22T14:54:45;6.38;;;5.53;;
13171;SDS011;6651;53.200;10.432;2023-06-22T14:57:11;6.32;;;5.20;;
13171;SDS011;6651;53.200;10.432;2023-06-22T14:59:37;5.68;;;5.18;;
13171;SDS011;6651;53.200;10.432;2023-06-22T15:02:03;7.13;;;6.32;;
13171;SDS011;6651;53.200;10.432;2023-06-22T15:04:28;6.90;;;5.88;;